sensor_id;sensor_type;location;lat;lon;timestamp;P1;durP1;ratioP1;P2;durP2;ratioP2
21569;SDS011;57598;50.888;4.746;2022-11-20T00:18:28;51.30;;;45.67;;
21569;SDS011;57598;50.888;4.746;2022-11-20T00:27:15;48.65;;;43.35;;
21569;SDS011;57598;50.888;4.746;2022-11-20T00:30:25;50.78;;;45.38;;
21569;SDS011;57598;50.888;4.746;2022-11-20T01:07:42;49.05;;;43.72;;
21569;SDS011;57598;50.888;4.746;2022-11-20T01:13:43;56.05;;;46.30;;
21569;SDS011;57598;50.888;4.746;2022-11-20T01:30:03;51.55;;;45.92;;
21569;SDS011;57598;50.888;4.746;2022-11-20T01:32:31;51.05;;;45.53;;
21569;SDS011;57598;50.888;4.746;2022-11-20T01:34:58;50.13;;;44.63;;
21569;SDS011;57598;50.888;4.746;2022-11-20T01:37:25;49.83;;;44.20;;
21569;SDS011;57598;50.888;4.746;2022-11-20T01:39:53;52.28;;;46.13;;
21569;SDS011;57598;50.888;4.746;2022-11-20T01:55:14;53.35;;;46.75;;
21569;SDS011;57598;50.888;4.746;2022-11-20T02:11:01;54.30;;;48.50;;
21569;SDS011;57598;50.888;4.746;2022-11-20T02:13:51;53.15;;;45.08;;
21569;SDS011;57598;50.888;4.746;2022-11-20T02:17:11;51.97;;;46.28;;
21569;SDS011;57598;50.888;4.746;2022-11-20T02:19:41;52.27;;;46.40;;
21569;SDS011;57598;50.888;4.746;2022-11-20T02:22:17;52.33;;;46.60;;
21569;SDS011;57598;50.888;4.746;2022-11-20T02:24:47;55.20;;;49.25;;
21569;SDS011;57598;50.888;4.746;2022-11-20T02:27:16;52.80;;;47.00;;
21569;SDS011;57598;50.888;4.746;2022-11-20T02:29:46;53.00;;;47.20;;
21569;SDS011;57598;50.888;4.746;2022-11-20T02:32:17;54.75;;;48.40;;
21569;SDS011;57598;50.888;4.746;2022-11-20T02:34:45;53.22;;;47.22;;
21569;SDS011;57598;50.888;4.746;2022-11-20T02:37:12;52.83;;;47.03;;
21569;SDS011;57598;50.888;4.746;2022-11-20T02:39:41;52.88;;;46.70;;
21569;SDS011;57598;50.888;4.746;2022-11-20T02:42:10;52.78;;;46.75;;
21569;SDS011;57598;50.888;4.746;2022-11-20T02:44:37;52.72;;;46.92;;
21569;SDS011;57598;50.888;4.746;2022-11-20T02:47:04;53.13;;;47.30;;
21569;SDS011;57598;50.888;4.746;2022-11-20T02:49:31;52.88;;;47.17;;
21569;SDS011;57598;50.888;4.746;2022-11-20T02:51:59;50.30;;;44.78;;
21569;SDS011;57598;50.888;4.746;2022-11-20T02:54:26;50.85;;;45.30;;
21569;SDS011;57598;50.888;4.746;2022-11-20T02:56:53;52.40;;;46.55;;
21569;SDS011;57598;50.888;4.746;2022-11-20T02:59:22;53.67;;;47.78;;
21569;SDS011;57598;50.888;4.746;2022-11-20T03:01:49;51.50;;;44.85;;
21569;SDS011;57598;50.888;4.746;2022-11-20T03:04:16;52.90;;;47.10;;
21569;SDS011;57598;50.888;4.746;2022-11-20T03:06:43;55.25;;;49.00;;
21569;SDS011;57598;50.888;4.746;2022-11-20T03:09:11;52.90;;;47.10;;
21569;SDS011;57598;50.888;4.746;2022-11-20T03:11:38;51.55;;;45.60;;
21569;SDS011;57598;50.888;4.746;2022-11-20T03:14:05;51.63;;;45.30;;
21569;SDS011;57598;50.888;4.746;2022-11-20T03:16:34;53.50;;;47.63;;
21569;SDS011;57598;50.888;4.746;2022-11-20T03:19:01;52.47;;;46.67;;
21569;SDS011;57598;50.888;4.746;2022-11-20T03:21:29;53.05;;;47.10;;
21569;SDS011;57598;50.888;4.746;2022-11-20T03:23:56;52.78;;;45.40;;
21569;SDS011;57598;50.888;4.746;2022-11-20T03:26:24;51.30;;;45.70;;
21569;SDS011;57598;50.888;4.746;2022-11-20T03:28:52;51.10;;;44.95;;
21569;SDS011;57598;50.888;4.746;2022-11-20T03:31:21;50.55;;;44.15;;
21569;SDS011;57598;50.888;4.746;2022-11-20T03:33:50;53.63;;;45.88;;
21569;SDS011;57598;50.888;4.746;2022-11-20T03:36:18;54.00;;;45.53;;
21569;SDS011;57598;50.888;4.746;2022-11-20T03:38:46;51.78;;;44.95;;
21569;SDS011;57598;50.888;4.746;2022-11-20T03:41:14;52.45;;;45.63;;
21569;SDS011;57598;50.888;4.746;2022-11-20T03:43:46;54.70;;;45.70;;
21569;SDS011;57598;50.888;4.746;2022-11-20T03:48:40;50.60;;;44.67;;
21569;SDS011;57598;50.888;4.746;2022-11-20T03:51:09;49.83;;;44.33;;
21569;SDS011;57598;50.888;4.746;2022-11-20T03:53:37;50.33;;;44.00;;
21569;SDS011;57598;50.888;4.746;2022-11-20T03:56:05;52.85;;;46.67;;
21569;SDS011;57598;50.888;4.746;2022-11-20T03:58:32;53.35;;;47.55;;
21569;SDS011;57598;50.888;4.746;2022-11-20T04:01:03;52.22;;;46.63;;
21569;SDS011;57598;50.888;4.746;2022-11-20T04:06:00;51.15;;;45.55;;
21569;SDS011;57598;50.888;4.746;2022-11-20T04:08:29;49.60;;;43.95;;
21569;SDS011;57598;50.888;4.746;2022-11-20T04:10:56;50.00;;;43.75;;
21569;SDS011;57598;50.888;4.746;2022-11-20T04:13:23;50.00;;;43.58;;
21569;SDS011;57598;50.888;4.746;2022-11-20T04:15:51;49.00;;;42.95;;
21569;SDS011;57598;50.888;4.746;2022-11-20T04:18:18;49.38;;;43.50;;
21569;SDS011;57598;50.888;4.746;2022-11-20T04:20:45;47.78;;;41.80;;
21569;SDS011;57598;50.888;4.746;2022-11-20T04:23:12;47.75;;;42.13;;
21569;SDS011;57598;50.888;4.746;2022-11-20T04:25:41;48.95;;;43.60;;
21569;SDS011;57598;50.888;4.746;2022-11-20T04:28:08;49.65;;;43.78;;
21569;SDS011;57598;50.888;4.746;2022-11-20T04:30:35;49.15;;;43.10;;
21569;SDS011;57598;50.888;4.746;2022-11-20T04:33:02;50.10;;;44.67;;
21569;SDS011;57598;50.888;4.746;2022-11-20T04:35:30;51.65;;;46.05;;
21569;SDS011;57598;50.888;4.746;2022-11-20T04:37:57;52.40;;;46.15;;
21569;SDS011;57598;50.888;4.746;2022-11-20T04:40:24;49.08;;;43.67;;
21569;SDS011;57598;50.888;4.746;2022-11-20T04:45:56;54.80;;;48.78;;
21569;SDS011;57598;50.888;4.746;2022-11-20T04:48:26;50.72;;;45.22;;
21569;SDS011;57598;50.888;4.746;2022-11-20T04:51:08;50.40;;;44.85;;
21569;SDS011;57598;50.888;4.746;2022-11-20T04:53:58;54.80;;;49.00;;
21569;SDS011;57598;50.888;4.746;2022-11-20T04:56:26;52.45;;;46.80;;
21569;SDS011;57598;50.888;4.746;2022-11-20T05:01:38;53.38;;;47.50;;
21569;SDS011;57598;50.888;4.746;2022-11-20T05:04:06;49.45;;;43.80;;
21569;SDS011;57598;50.888;4.746;2022-11-20T05:06:35;49.40;;;44.00;;
21569;SDS011;57598;50.888;4.746;2022-11-20T05:09:02;49.55;;;44.13;;
21569;SDS011;57598;50.888;4.746;2022-11-20T05:11:31;48.80;;;43.40;;
21569;SDS011;57598;50.888;4.746;2022-11-20T05:13:59;49.03;;;43.42;;
21569;SDS011;57598;50.888;4.746;2022-11-20T05:16:26;51.08;;;45.58;;
21569;SDS011;57598;50.888;4.746;2022-11-20T05:18:55;54.90;;;49.13;;
21569;SDS011;57598;50.888;4.746;2022-11-20T05:21:22;47.92;;;42.72;;
21569;SDS011;57598;50.888;4.746;2022-11-20T05:23:53;48.88;;;43.47;;
21569;SDS011;57598;50.888;4.746;2022-11-20T05:26:21;48.72;;;43.40;;
21569;SDS011;57598;50.888;4.746;2022-11-20T05:28:48;46.60;;;41.33;;
21569;SDS011;57598;50.888;4.746;2022-11-20T05:31:16;47.47;;;41.67;;
21569;SDS011;57598;50.888;4.746;2022-11-20T05:33:44;47.47;;;41.50;;
21569;SDS011;57598;50.888;4.746;2022-11-20T05:36:14;47.70;;;41.67;;
21569;SDS011;57598;50.888;4.746;2022-11-20T05:38:42;48.42;;;42.78;;
21569;SDS011;57598;50.888;4.746;2022-11-20T05:41:10;46.15;;;40.55;;
21569;SDS011;57598;50.888;4.746;2022-11-20T05:43:39;46.28;;;40.72;;
21569;SDS011;57598;50.888;4.746;2022-11-20T05:46:08;46.35;;;40.15;;
21569;SDS011;57598;50.888;4.746;2022-11-20T05:48:36;47.25;;;42.05;;
21569;SDS011;57598;50.888;4.746;2022-11-20T05:51:08;47.28;;;42.03;;
21569;SDS011;57598;50.888;4.746;2022-11-20T05:53:39;47.08;;;41.50;;
21569;SDS011;57598;50.888;4.746;2022-11-20T05:56:07;46.63;;;41.53;;
21569;SDS011;57598;50.888;4.746;2022-11-20T05:58:45;47.38;;;41.95;;
21569;SDS011;57598;50.888;4.746;2022-11-20T06:01:16;48.00;;;42.10;;
21569;SDS011;57598;50.888;4.746;2022-11-20T06:03:44;47.45;;;42.25;;
21569;SDS011;57598;50.888;4.746;2022-11-20T06:06:18;46.28;;;40.35;;
21569;SDS011;57598;50.888;4.746;2022-11-20T06:12:15;49.00;;;43.63;;
21569;SDS011;57598;50.888;4.746;2022-11-20T06:17:51;46.58;;;41.15;;
21569;SDS011;57598;50.888;4.746;2022-11-20T06:20:19;47.83;;;41.70;;
21569;SDS011;57598;50.888;4.746;2022-11-20T06:22:47;48.47;;;43.17;;
21569;SDS011;57598;50.888;4.746;2022-11-20T06:28:56;52.78;;;44.28;;
21569;SDS011;57598;50.888;4.746;2022-11-20T06:31:25;47.60;;;42.50;;
21569;SDS011;57598;50.888;4.746;2022-11-20T06:33:53;46.85;;;41.13;;
21569;SDS011;57598;50.888;4.746;2022-11-20T06:36:21;46.75;;;41.63;;
21569;SDS011;57598;50.888;4.746;2022-11-20T06:38:49;50.85;;;45.35;;
21569;SDS011;57598;50.888;4.746;2022-11-20T06:41:17;49.60;;;44.33;;
21569;SDS011;57598;50.888;4.746;2022-11-20T06:43:45;46.17;;;41.17;;
21569;SDS011;57598;50.888;4.746;2022-11-20T06:46:14;44.90;;;40.00;;
21569;SDS011;57598;50.888;4.746;2022-11-20T06:48:43;45.58;;;40.60;;
21569;SDS011;57598;50.888;4.746;2022-11-20T06:51:10;45.90;;;40.72;;
21569;SDS011;57598;50.888;4.746;2022-11-20T06:53:38;45.42;;;40.53;;
21569;SDS011;57598;50.888;4.746;2022-11-20T06:56:06;45.22;;;40.33;;
21569;SDS011;57598;50.888;4.746;2022-11-20T06:58:35;45.10;;;40.22;;
21569;SDS011;57598;50.888;4.746;2022-11-20T07:01:03;44.50;;;39.80;;
21569;SDS011;57598;50.888;4.746;2022-11-20T07:03:43;44.83;;;40.03;;
21569;SDS011;57598;50.888;4.746;2022-11-20T07:06:55;46.08;;;41.17;;
21569;SDS011;57598;50.888;4.746;2022-11-20T07:09:46;44.78;;;39.97;;
21569;SDS011;57598;50.888;4.746;2022-11-20T07:24:32;43.58;;;38.78;;
21569;SDS011;57598;50.888;4.746;2022-11-20T07:27:30;43.85;;;39.05;;
21569;SDS011;57598;50.888;4.746;2022-11-20T07:39:21;42.83;;;38.33;;
21569;SDS011;57598;50.888;4.746;2022-11-20T07:41:54;45.92;;;41.22;;
21569;SDS011;57598;50.888;4.746;2022-11-20T07:44:43;43.67;;;39.20;;
21569;SDS011;57598;50.888;4.746;2022-11-20T07:47:49;44.67;;;40.00;;
21569;SDS011;57598;50.888;4.746;2022-11-20T07:50:16;42.75;;;38.25;;
21569;SDS011;57598;50.888;4.746;2022-11-20T07:52:44;44.42;;;39.83;;
21569;SDS011;57598;50.888;4.746;2022-11-20T07:55:11;45.05;;;40.38;;
21569;SDS011;57598;50.888;4.746;2022-11-20T07:57:40;51.60;;;44.92;;
21569;SDS011;57598;50.888;4.746;2022-11-20T08:00:08;46.20;;;41.40;;
21569;SDS011;57598;50.888;4.746;2022-11-20T08:02:36;63.55;;;57.00;;
21569;SDS011;57598;50.888;4.746;2022-11-20T08:05:05;46.20;;;41.60;;
21569;SDS011;57598;50.888;4.746;2022-11-20T08:07:35;44.38;;;39.78;;
21569;SDS011;57598;50.888;4.746;2022-11-20T08:10:03;43.40;;;38.90;;
21569;SDS011;57598;50.888;4.746;2022-11-20T08:12:30;42.50;;;38.10;;
21569;SDS011;57598;50.888;4.746;2022-11-20T08:15:18;42.70;;;38.30;;
21569;SDS011;57598;50.888;4.746;2022-11-20T08:17:50;42.50;;;38.10;;
21569;SDS011;57598;50.888;4.746;2022-11-20T08:20:19;42.78;;;38.38;;
21569;SDS011;57598;50.888;4.746;2022-11-20T08:25:36;43.92;;;39.42;;
21569;SDS011;57598;50.888;4.746;2022-11-20T08:28:06;43.30;;;38.90;;
21569;SDS011;57598;50.888;4.746;2022-11-20T08:30:36;43.88;;;39.40;;
21569;SDS011;57598;50.888;4.746;2022-11-20T08:33:04;46.60;;;41.67;;
21569;SDS011;57598;50.888;4.746;2022-11-20T08:35:33;42.90;;;38.50;;
21569;SDS011;57598;50.888;4.746;2022-11-20T08:38:01;45.33;;;40.63;;
21569;SDS011;57598;50.888;4.746;2022-11-20T08:40:30;47.70;;;42.58;;
21569;SDS011;57598;50.888;4.746;2022-11-20T08:43:24;43.38;;;38.88;;
21569;SDS011;57598;50.888;4.746;2022-11-20T08:49:16;45.92;;;41.33;;
21569;SDS011;57598;50.888;4.746;2022-11-20T08:51:45;43.88;;;39.40;;
21569;SDS011;57598;50.888;4.746;2022-11-20T08:54:27;44.33;;;39.88;;
21569;SDS011;57598;50.888;4.746;2022-11-20T08:56:54;44.15;;;39.65;;
21569;SDS011;57598;50.888;4.746;2022-11-20T08:59:21;45.03;;;40.42;;
21569;SDS011;57598;50.888;4.746;2022-11-20T09:01:49;43.55;;;39.15;;
21569;SDS011;57598;50.888;4.746;2022-11-20T09:04:19;45.33;;;40.80;;
21569;SDS011;57598;50.888;4.746;2022-11-20T09:06:48;43.50;;;39.00;;
21569;SDS011;57598;50.888;4.746;2022-11-20T09:21:21;51.13;;;46.08;;
21569;SDS011;57598;50.888;4.746;2022-11-20T09:23:49;46.17;;;41.67;;
21569;SDS011;57598;50.888;4.746;2022-11-20T09:26:16;45.00;;;40.53;;
21569;SDS011;57598;50.888;4.746;2022-11-20T09:28:44;44.15;;;39.75;;
21569;SDS011;57598;50.888;4.746;2022-11-20T09:31:15;46.63;;;41.88;;
21569;SDS011;57598;50.888;4.746;2022-11-20T09:33:44;44.97;;;40.45;;
21569;SDS011;57598;50.888;4.746;2022-11-20T09:36:11;50.10;;;45.13;;
21569;SDS011;57598;50.888;4.746;2022-11-20T09:38:40;46.28;;;41.58;;
21569;SDS011;57598;50.888;4.746;2022-11-20T09:57:01;44.97;;;40.47;;
21569;SDS011;57598;50.888;4.746;2022-11-20T09:59:35;43.80;;;39.43;;
21569;SDS011;57598;50.888;4.746;2022-11-20T10:02:12;45.08;;;40.58;;
21569;SDS011;57598;50.888;4.746;2022-11-20T10:04:43;44.00;;;39.60;;
21569;SDS011;57598;50.888;4.746;2022-11-20T10:07:12;46.53;;;42.03;;
21569;SDS011;57598;50.888;4.746;2022-11-20T10:09:40;48.65;;;43.10;;
21569;SDS011;57598;50.888;4.746;2022-11-20T10:12:14;45.28;;;40.88;;
21569;SDS011;57598;50.888;4.746;2022-11-20T10:14:49;46.70;;;42.10;;
21569;SDS011;57598;50.888;4.746;2022-11-20T10:17:21;45.33;;;40.80;;
21569;SDS011;57598;50.888;4.746;2022-11-20T10:19:56;44.90;;;40.45;;
21569;SDS011;57598;50.888;4.746;2022-11-20T10:22:33;43.45;;;39.15;;
21569;SDS011;57598;50.888;4.746;2022-11-20T10:25:11;42.72;;;38.42;;
21569;SDS011;57598;50.888;4.746;2022-11-20T10:28:14;45.80;;;41.20;;
21569;SDS011;57598;50.888;4.746;2022-11-20T10:30:43;43.72;;;39.33;;
21569;SDS011;57598;50.888;4.746;2022-11-20T10:33:13;43.88;;;39.47;;
21569;SDS011;57598;50.888;4.746;2022-11-20T10:35:44;42.83;;;38.53;;
21569;SDS011;57598;50.888;4.746;2022-11-20T10:38:16;43.13;;;38.78;;
21569;SDS011;57598;50.888;4.746;2022-11-20T10:40:45;43.57;;;39.17;;
21569;SDS011;57598;50.888;4.746;2022-11-20T10:43:15;44.20;;;39.80;;
21569;SDS011;57598;50.888;4.746;2022-11-20T10:45:46;43.35;;;39.05;;
21569;SDS011;57598;50.888;4.746;2022-11-20T10:48:16;42.20;;;38.00;;
21569;SDS011;57598;50.888;4.746;2022-11-20T10:50:54;44.35;;;39.95;;
21569;SDS011;57598;50.888;4.746;2022-11-20T10:53:28;45.08;;;40.47;;
21569;SDS011;57598;50.888;4.746;2022-11-20T10:56:00;44.67;;;40.17;;
21569;SDS011;57598;50.888;4.746;2022-11-20T10:58:33;44.75;;;40.25;;
21569;SDS011;57598;50.888;4.746;2022-11-20T11:01:05;44.53;;;40.13;;
21569;SDS011;57598;50.888;4.746;2022-11-20T11:03:32;48.88;;;43.53;;
21569;SDS011;57598;50.888;4.746;2022-11-20T11:06:01;44.85;;;40.35;;
21569;SDS011;57598;50.888;4.746;2022-11-20T11:08:32;44.15;;;39.55;;
21569;SDS011;57598;50.888;4.746;2022-11-20T11:11:02;46.00;;;41.50;;
21569;SDS011;57598;50.888;4.746;2022-11-20T11:13:35;46.00;;;41.38;;
21569;SDS011;57598;50.888;4.746;2022-11-20T11:16:02;44.03;;;39.63;;
21569;SDS011;57598;50.888;4.746;2022-11-20T11:18:30;46.97;;;42.17;;
21569;SDS011;57598;50.888;4.746;2022-11-20T11:20:59;47.25;;;42.75;;
21569;SDS011;57598;50.888;4.746;2022-11-20T11:23:29;48.10;;;43.45;;
21569;SDS011;57598;50.888;4.746;2022-11-20T11:25:58;46.88;;;42.28;;
21569;SDS011;57598;50.888;4.746;2022-11-20T11:28:26;48.38;;;43.35;;
21569;SDS011;57598;50.888;4.746;2022-11-20T11:30:55;48.03;;;43.03;;
21569;SDS011;57598;50.888;4.746;2022-11-20T11:33:23;48.13;;;43.50;;
21569;SDS011;57598;50.888;4.746;2022-11-20T11:35:50;50.40;;;45.50;;
21569;SDS011;57598;50.888;4.746;2022-11-20T11:38:19;49.40;;;44.65;;
21569;SDS011;57598;50.888;4.746;2022-11-20T11:40:48;48.00;;;43.30;;
21569;SDS011;57598;50.888;4.746;2022-11-20T11:43:19;49.13;;;44.35;;
21569;SDS011;57598;50.888;4.746;2022-11-20T11:46:08;49.28;;;44.47;;
21569;SDS011;57598;50.888;4.746;2022-11-20T11:48:40;47.60;;;43.00;;
21569;SDS011;57598;50.888;4.746;2022-11-20T11:51:08;48.35;;;43.75;;
21569;SDS011;57598;50.888;4.746;2022-11-20T11:53:36;48.08;;;43.55;;
21569;SDS011;57598;50.888;4.746;2022-11-20T11:56:08;49.05;;;44.35;;
21569;SDS011;57598;50.888;4.746;2022-11-20T11:58:40;50.00;;;45.30;;
21569;SDS011;57598;50.888;4.746;2022-11-20T12:01:12;51.13;;;46.28;;
21569;SDS011;57598;50.888;4.746;2022-11-20T12:03:47;50.25;;;45.08;;
21569;SDS011;57598;50.888;4.746;2022-11-20T12:06:18;52.03;;;47.17;;
21569;SDS011;57598;50.888;4.746;2022-11-20T12:08:47;52.40;;;47.20;;
21569;SDS011;57598;50.888;4.746;2022-11-20T12:11:21;50.53;;;45.93;;
21569;SDS011;57598;50.888;4.746;2022-11-20T12:13:53;51.97;;;47.30;;
21569;SDS011;57598;50.888;4.746;2022-11-20T12:16:22;49.75;;;45.28;;
21569;SDS011;57598;50.888;4.746;2022-11-20T12:18:50;50.03;;;45.70;;
21569;SDS011;57598;50.888;4.746;2022-11-20T12:21:18;51.47;;;46.78;;
21569;SDS011;57598;50.888;4.746;2022-11-20T12:23:53;52.25;;;47.45;;
21569;SDS011;57598;50.888;4.746;2022-11-20T12:26:27;55.22;;;49.92;;
21569;SDS011;57598;50.888;4.746;2022-11-20T12:29:01;57.20;;;51.72;;
21569;SDS011;57598;50.888;4.746;2022-11-20T12:31:43;56.80;;;51.30;;
21569;SDS011;57598;50.888;4.746;2022-11-20T12:34:19;59.70;;;53.75;;
21569;SDS011;57598;50.888;4.746;2022-11-20T12:36:49;56.00;;;50.50;;
21569;SDS011;57598;50.888;4.746;2022-11-20T12:39:22;63.25;;;56.95;;
21569;SDS011;57598;50.888;4.746;2022-11-20T12:41:54;173.38;;;161.57;;
21569;SDS011;57598;50.888;4.746;2022-11-20T12:44:51;130.63;;;121.13;;
21569;SDS011;57598;50.888;4.746;2022-11-20T12:47:42;134.40;;;124.70;;
21569;SDS011;57598;50.888;4.746;2022-11-20T12:50:14;128.90;;;119.80;;
21569;SDS011;57598;50.888;4.746;2022-11-20T12:52:45;138.10;;;128.02;;
21569;SDS011;57598;50.888;4.746;2022-11-20T12:55:25;149.23;;;138.63;;
21569;SDS011;57598;50.888;4.746;2022-11-20T12:57:57;125.03;;;115.93;;
21569;SDS011;57598;50.888;4.746;2022-11-20T13:00:25;129.77;;;120.38;;
21569;SDS011;57598;50.888;4.746;2022-11-20T13:02:58;111.05;;;102.70;;
21569;SDS011;57598;50.888;4.746;2022-11-20T13:05:28;153.18;;;142.32;;
21569;SDS011;57598;50.888;4.746;2022-11-20T13:07:58;151.52;;;140.93;;
21569;SDS011;57598;50.888;4.746;2022-11-20T13:10:30;148.88;;;138.00;;
21569;SDS011;57598;50.888;4.746;2022-11-20T13:12:58;127.93;;;118.50;;
21569;SDS011;57598;50.888;4.746;2022-11-20T13:15:34;118.22;;;109.43;;
21569;SDS011;57598;50.888;4.746;2022-11-20T13:18:04;127.35;;;118.15;;
21569;SDS011;57598;50.888;4.746;2022-11-20T13:20:34;118.43;;;109.63;;
21569;SDS011;57598;50.888;4.746;2022-11-20T13:23:03;114.15;;;105.70;;
21569;SDS011;57598;50.888;4.746;2022-11-20T13:25:34;112.30;;;103.97;;
21569;SDS011;57598;50.888;4.746;2022-11-20T13:28:03;114.82;;;106.32;;
21569;SDS011;57598;50.888;4.746;2022-11-20T13:30:30;117.45;;;108.57;;
21569;SDS011;57598;50.888;4.746;2022-11-20T13:32:58;121.57;;;112.75;;
21569;SDS011;57598;50.888;4.746;2022-11-20T13:35:32;124.82;;;115.82;;
21569;SDS011;57598;50.888;4.746;2022-11-20T13:38:01;137.38;;;127.80;;
21569;SDS011;57598;50.888;4.746;2022-11-20T13:40:28;113.78;;;105.47;;
21569;SDS011;57598;50.888;4.746;2022-11-20T13:43:00;114.28;;;105.88;;
21569;SDS011;57598;50.888;4.746;2022-11-20T13:45:28;119.40;;;110.72;;
21569;SDS011;57598;50.888;4.746;2022-11-20T13:47:56;116.50;;;107.95;;
21569;SDS011;57598;50.888;4.746;2022-11-20T13:50:30;118.80;;;110.10;;
21569;SDS011;57598;50.888;4.746;2022-11-20T13:53:06;121.88;;;113.03;;
21569;SDS011;57598;50.888;4.746;2022-11-20T13:55:38;120.80;;;112.00;;
21569;SDS011;57598;50.888;4.746;2022-11-20T13:58:22;114.00;;;105.57;;
21569;SDS011;57598;50.888;4.746;2022-11-20T14:00:55;119.55;;;110.93;;
21569;SDS011;57598;50.888;4.746;2022-11-20T14:03:24;125.22;;;116.35;;
21569;SDS011;57598;50.888;4.746;2022-11-20T14:05:52;118.57;;;109.57;;
21569;SDS011;57598;50.888;4.746;2022-11-20T14:08:27;117.60;;;109.20;;
21569;SDS011;57598;50.888;4.746;2022-11-20T14:11:05;124.10;;;115.30;;
21569;SDS011;57598;50.888;4.746;2022-11-20T14:13:33;112.97;;;104.78;;
21569;SDS011;57598;50.888;4.746;2022-11-20T14:16:00;111.18;;;102.97;;
21569;SDS011;57598;50.888;4.746;2022-11-20T14:18:27;110.63;;;102.57;;
21569;SDS011;57598;50.888;4.746;2022-11-20T14:21:01;115.38;;;107.07;;
21569;SDS011;57598;50.888;4.746;2022-11-20T14:23:37;116.47;;;108.18;;
21569;SDS011;57598;50.888;4.746;2022-11-20T14:26:05;114.15;;;105.95;;
21569;SDS011;57598;50.888;4.746;2022-11-20T14:28:32;162.85;;;151.45;;
21569;SDS011;57598;50.888;4.746;2022-11-20T14:30:59;121.47;;;112.53;;
21569;SDS011;57598;50.888;4.746;2022-11-20T14:33:26;111.97;;;103.75;;
21569;SDS011;57598;50.888;4.746;2022-11-20T14:35:55;112.55;;;104.18;;
21569;SDS011;57598;50.888;4.746;2022-11-20T14:38:24;116.40;;;107.60;;
21569;SDS011;57598;50.888;4.746;2022-11-20T14:40:53;122.05;;;113.15;;
21569;SDS011;57598;50.888;4.746;2022-11-20T14:43:22;129.60;;;120.28;;
21569;SDS011;57598;50.888;4.746;2022-11-20T14:45:57;131.05;;;121.68;;
21569;SDS011;57598;50.888;4.746;2022-11-20T14:48:28;135.32;;;125.68;;
21569;SDS011;57598;50.888;4.746;2022-11-20T14:50:55;134.25;;;124.85;;
21569;SDS011;57598;50.888;4.746;2022-11-20T14:53:23;127.38;;;118.35;;
21569;SDS011;57598;50.888;4.746;2022-11-20T14:55:56;128.00;;;119.03;;
21569;SDS011;57598;50.888;4.746;2022-11-20T14:58:24;116.32;;;107.72;;
21569;SDS011;57598;50.888;4.746;2022-11-20T15:00:55;116.35;;;108.05;;
21569;SDS011;57598;50.888;4.746;2022-11-20T15:03:23;116.00;;;107.70;;
21569;SDS011;57598;50.888;4.746;2022-11-20T15:05:50;116.05;;;107.78;;
21569;SDS011;57598;50.888;4.746;2022-11-20T15:08:17;107.68;;;99.88;;
21569;SDS011;57598;50.888;4.746;2022-11-20T15:10:45;107.63;;;99.82;;
21569;SDS011;57598;50.888;4.746;2022-11-20T15:13:14;111.32;;;103.30;;
21569;SDS011;57598;50.888;4.746;2022-11-20T15:15:43;113.65;;;105.40;;
21569;SDS011;57598;50.888;4.746;2022-11-20T15:18:12;121.50;;;112.85;;
21569;SDS011;57598;50.888;4.746;2022-11-20T15:20:40;121.30;;;112.60;;
21569;SDS011;57598;50.888;4.746;2022-11-20T15:23:09;117.60;;;109.07;;
21569;SDS011;57598;50.888;4.746;2022-11-20T15:25:39;112.15;;;103.88;;
21569;SDS011;57598;50.888;4.746;2022-11-20T15:28:10;117.88;;;109.28;;
21569;SDS011;57598;50.888;4.746;2022-11-20T15:30:41;115.80;;;107.20;;
21569;SDS011;57598;50.888;4.746;2022-11-20T15:33:08;114.15;;;105.85;;
21569;SDS011;57598;50.888;4.746;2022-11-20T15:35:35;119.68;;;111.13;;
21569;SDS011;57598;50.888;4.746;2022-11-20T15:38:03;122.65;;;113.95;;
21569;SDS011;57598;50.888;4.746;2022-11-20T15:40:30;123.35;;;114.50;;
21569;SDS011;57598;50.888;4.746;2022-11-20T15:42:58;129.38;;;120.38;;
21569;SDS011;57598;50.888;4.746;2022-11-20T15:45:29;124.75;;;115.95;;
21569;SDS011;57598;50.888;4.746;2022-11-20T15:47:59;125.90;;;116.85;;
21569;SDS011;57598;50.888;4.746;2022-11-20T15:50:27;121.95;;;113.25;;
21569;SDS011;57598;50.888;4.746;2022-11-20T15:52:56;116.82;;;108.38;;
21569;SDS011;57598;50.888;4.746;2022-11-20T15:55:26;116.18;;;107.88;;
21569;SDS011;57598;50.888;4.746;2022-11-20T15:57:53;122.03;;;113.32;;
21569;SDS011;57598;50.888;4.746;2022-11-20T16:00:20;120.85;;;112.35;;
21569;SDS011;57598;50.888;4.746;2022-11-20T16:02:48;118.93;;;110.40;;
21569;SDS011;57598;50.888;4.746;2022-11-20T16:05:17;111.82;;;103.22;;
21569;SDS011;57598;50.888;4.746;2022-11-20T16:07:44;103.90;;;96.10;;
21569;SDS011;57598;50.888;4.746;2022-11-20T16:10:12;108.13;;;100.00;;
21569;SDS011;57598;50.888;4.746;2022-11-20T16:12:39;104.15;;;96.45;;
21569;SDS011;57598;50.888;4.746;2022-11-20T16:15:24;102.32;;;94.82;;
21569;SDS011;57598;50.888;4.746;2022-11-20T16:18:09;109.97;;;100.28;;
21569;SDS011;57598;50.888;4.746;2022-11-20T16:20:39;106.50;;;98.68;;
21569;SDS011;57598;50.888;4.746;2022-11-20T16:23:06;105.75;;;97.75;;
21569;SDS011;57598;50.888;4.746;2022-11-20T16:25:34;103.13;;;95.72;;
21569;SDS011;57598;50.888;4.746;2022-11-20T16:28:01;102.63;;;95.22;;
21569;SDS011;57598;50.888;4.746;2022-11-20T16:30:29;111.35;;;101.78;;
21569;SDS011;57598;50.888;4.746;2022-11-20T16:32:57;109.53;;;101.70;;
21569;SDS011;57598;50.888;4.746;2022-11-20T16:35:25;100.53;;;93.25;;
21569;SDS011;57598;50.888;4.746;2022-11-20T16:37:54;104.45;;;97.10;;
21569;SDS011;57598;50.888;4.746;2022-11-20T16:40:22;102.65;;;95.25;;
21569;SDS011;57598;50.888;4.746;2022-11-20T16:42:49;102.65;;;95.25;;
21569;SDS011;57598;50.888;4.746;2022-11-20T16:45:17;103.00;;;95.80;;
21569;SDS011;57598;50.888;4.746;2022-11-20T16:47:44;100.63;;;93.13;;
21569;SDS011;57598;50.888;4.746;2022-11-20T16:50:12;102.05;;;94.78;;
21569;SDS011;57598;50.888;4.746;2022-11-20T16:52:39;102.53;;;95.18;;
21569;SDS011;57598;50.888;4.746;2022-11-20T16:55:08;101.63;;;93.93;;
21569;SDS011;57598;50.888;4.746;2022-11-20T16:57:37;99.47;;;92.38;;
21569;SDS011;57598;50.888;4.746;2022-11-20T17:00:07;93.30;;;86.53;;
21569;SDS011;57598;50.888;4.746;2022-11-20T17:02:34;96.50;;;89.60;;
21569;SDS011;57598;50.888;4.746;2022-11-20T17:05:02;98.03;;;90.97;;
21569;SDS011;57598;50.888;4.746;2022-11-20T17:07:30;94.60;;;87.65;;
21569;SDS011;57598;50.888;4.746;2022-11-20T17:09:57;90.53;;;83.88;;
21569;SDS011;57598;50.888;4.746;2022-11-20T17:12:26;94.13;;;87.15;;
21569;SDS011;57598;50.888;4.746;2022-11-20T17:14:53;100.95;;;93.75;;
21569;SDS011;57598;50.888;4.746;2022-11-20T17:17:21;107.40;;;96.88;;
21569;SDS011;57598;50.888;4.746;2022-11-20T17:19:48;93.05;;;86.15;;
21569;SDS011;57598;50.888;4.746;2022-11-20T17:22:15;92.22;;;85.43;;
21569;SDS011;57598;50.888;4.746;2022-11-20T17:24:43;93.65;;;86.70;;
21569;SDS011;57598;50.888;4.746;2022-11-20T17:27:10;95.50;;;87.20;;
21569;SDS011;57598;50.888;4.746;2022-11-20T17:29:39;102.85;;;95.55;;
21569;SDS011;57598;50.888;4.746;2022-11-20T17:32:06;105.20;;;97.93;;